Terminal Aerodrome Forecast
Issued by NWS

Home | Current Version | Previous Version | Graphics & Text | Print | Product List | Glossary On
Versions: 1 2 3 4 5 6 7 8 9 10 11 12 13 14 15 16
357
FTUS42 KMHX 231740
TAFOAJ
TAF
KOAJ 231740Z 2318/2418 22008KT P6SM FEW070
     FM240100 21008KT P6SM VCTS SCT080CB
     FM240300 21007KT P6SM SCT120
     FM241000 21007KT P6SM BKN070
      AMD LTD TO CLD VIS AND WIND=

USA.gov is the U.S. government's official web portal to all federal, state and local government web resources and services.